createdAt,value
2023-05-04T00:02:26.896Z,4.10
2023-05-04T00:04:55.857Z,3.60
2023-05-04T00:07:24.890Z,3.57
2023-05-04T00:09:54.490Z,3.70
2023-05-04T00:12:25.193Z,3.80
2023-05-04T00:14:53.901Z,3.67
2023-05-04T00:17:22.383Z,4.03
2023-05-04T00:19:50.736Z,3.83
2023-05-04T00:22:18.970Z,3.60
2023-05-04T00:24:47.293Z,3.43
2023-05-04T00:27:17.324Z,3.80
2023-05-04T00:29:45.636Z,4.10
2023-05-04T00:32:13.879Z,4.20
2023-05-04T00:34:42.986Z,4.87
2023-05-04T00:37:11.261Z,4.30
2023-05-04T00:39:39.464Z,4.27
2023-05-04T00:42:07.895Z,4.27
2023-05-04T00:44:41.128Z,4.23
2023-05-04T00:47:10.345Z,4.13
2023-05-04T00:49:39.029Z,4.13
2023-05-04T00:52:07.883Z,4.33
2023-05-04T00:54:36.537Z,4.00
2023-05-04T00:57:05.282Z,4.20
2023-05-04T00:59:33.533Z,3.90
2023-05-04T01:02:03.288Z,3.90
2023-05-04T01:04:31.675Z,4.00
2023-05-04T01:07:08.927Z,4.00
2023-05-04T01:09:43.997Z,3.90
2023-05-04T01:12:19.068Z,3.70
2023-05-04T01:14:48.028Z,3.70
2023-05-04T01:17:17.655Z,4.10
2023-05-04T01:19:48.163Z,4.13
2023-05-04T01:22:17.792Z,3.57
2023-05-04T01:24:46.067Z,4.53
2023-05-04T01:27:24.198Z,4.30
2023-05-04T01:30:00.379Z,4.33
2023-05-04T01:32:30.484Z,4.37
2023-05-04T01:35:00.578Z,4.17
2023-05-04T01:37:32.893Z,4.07
2023-05-04T01:40:01.426Z,4.47
2023-05-04T01:42:29.866Z,4.57
2023-05-04T01:44:58.117Z,4.70
2023-05-04T01:47:26.585Z,4.90
2023-05-04T01:49:54.885Z,4.53
2023-05-04T01:52:23.139Z,4.47
2023-05-04T01:54:53.583Z,4.83
2023-05-04T01:57:21.868Z,4.33
2023-05-04T01:59:50.167Z,4.47
2023-05-04T02:02:20.181Z,4.80
2023-05-04T02:04:50.465Z,4.70
2023-05-04T02:07:22.933Z,5.27
2023-05-04T02:09:51.517Z,4.90
2023-05-04T02:12:21.245Z,5.00
2023-05-04T02:14:49.568Z,4.90
2023-05-04T02:17:17.806Z,5.40
2023-05-04T02:19:46.069Z,4.70
2023-05-04T02:22:16.196Z,4.20
2023-05-04T02:24:44.545Z,4.97
2023-05-04T02:27:12.827Z,4.73
2023-05-04T02:29:42.429Z,5.10
2023-05-04T02:32:10.708Z,5.23
2023-05-04T02:34:38.972Z,5.50
2023-05-04T02:37:07.703Z,5.30
2023-05-04T02:39:36.591Z,4.80
2023-05-04T02:42:04.974Z,5.60
2023-05-04T02:44:33.157Z,6.00
2023-05-04T02:47:03.243Z,5.00
2023-05-04T02:49:31.483Z,5.00
2023-05-04T02:51:59.693Z,5.27
2023-05-04T02:54:27.924Z,4.90
2023-05-04T02:56:56.106Z,5.13
2023-05-04T02:59:24.370Z,5.30
2023-05-04T03:01:52.736Z,5.27
2023-05-04T03:04:22.342Z,5.97
2023-05-04T03:06:50.641Z,4.53
2023-05-04T03:09:18.846Z,4.97
2023-05-04T03:11:51.066Z,5.23
2023-05-04T03:14:19.865Z,5.37
2023-05-04T03:16:48.478Z,5.20
2023-05-04T03:19:18.945Z,5.57
2023-05-04T03:21:49.072Z,5.70
2023-05-04T03:24:19.782Z,5.70
2023-05-04T03:26:49.218Z,5.40
2023-05-04T03:29:17.480Z,5.30
2023-05-04T03:31:45.860Z,5.60
2023-05-04T03:34:21.320Z,5.77
2023-05-04T03:36:53.286Z,6.67
2023-05-04T03:39:22.245Z,6.10
2023-05-04T03:41:52.252Z,6.00
2023-05-04T03:44:21.288Z,5.70
2023-05-04T03:46:49.513Z,6.53
2023-05-04T03:49:17.941Z,5.63
2023-05-04T03:51:46.151Z,5.90
2023-05-04T03:54:15.894Z,6.17
2023-05-04T03:56:44.206Z,5.53
2023-05-04T03:59:14.241Z,6.30
2023-05-04T04:01:43.200Z,5.67
2023-05-04T04:04:11.855Z,6.03
2023-05-04T04:06:42.692Z,6.07
2023-05-04T04:09:11.660Z,6.60
2023-05-04T04:11:41.434Z,6.43
2023-05-04T04:14:09.769Z,6.33
2023-05-04T04:16:38.258Z,6.57
2023-05-04T04:19:07.436Z,6.63
2023-05-04T04:21:35.750Z,6.77
2023-05-04T04:24:04.058Z,6.23
2023-05-04T04:26:32.342Z,6.60
2023-05-04T04:29:01.937Z,6.13
2023-05-04T04:31:30.484Z,6.73
2023-05-04T04:33:59.306Z,6.27
2023-05-04T04:36:27.589Z,5.67
2023-05-04T04:38:55.798Z,6.53
2023-05-04T04:41:24.996Z,6.73
2023-05-04T04:43:53.236Z,5.90
2023-05-04T04:46:22.815Z,6.47
2023-05-04T04:48:52.606Z,6.80
2023-05-04T04:51:21.332Z,6.67
2023-05-04T04:53:51.294Z,6.53
2023-05-04T04:56:20.083Z,6.53
2023-05-04T04:58:48.631Z,6.83
2023-05-04T05:01:21.282Z,7.07
2023-05-04T05:03:52.534Z,7.20
2023-05-04T05:06:21.076Z,6.97
2023-05-04T05:08:49.279Z,6.43
2023-05-04T05:11:17.604Z,6.97
2023-05-04T05:13:45.842Z,7.13
2023-05-04T05:16:14.343Z,7.40
2023-05-04T05:18:42.700Z,7.20
2023-05-04T05:21:12.539Z,7.00
2023-05-04T05:23:40.796Z,7.33
2023-05-04T05:26:09.082Z,7.63
2023-05-04T05:28:37.307Z,7.60
2023-05-04T05:31:05.667Z,7.40
2023-05-04T05:33:33.986Z,7.43
2023-05-04T05:36:02.956Z,7.53
2023-05-04T05:38:32.542Z,8.20
2023-05-04T05:41:00.781Z,7.73
2023-05-04T05:43:29.014Z,7.90
2023-05-04T05:45:57.426Z,8.07
2023-05-04T05:48:25.646Z,8.00
2023-05-04T05:50:53.845Z,8.13
2023-05-04T05:53:22.070Z,7.70
2023-05-04T05:55:52.030Z,8.10
2023-05-04T05:58:20.213Z,7.70
2023-05-04T06:00:48.552Z,8.33
2023-05-04T06:03:17.319Z,7.97
2023-05-04T06:05:51.625Z,8.03
2023-05-04T06:08:26.835Z,8.43
2023-05-04T06:10:56.813Z,8.43
2023-05-04T06:13:36.249Z,7.97
2023-05-04T06:16:05.934Z,7.80
2023-05-04T06:18:34.154Z,8.73
2023-05-04T06:21:03.856Z,8.10
2023-05-04T06:23:32.730Z,7.73
2023-05-04T06:26:02.476Z,7.90
2023-05-04T06:28:30.682Z,7.97
2023-05-04T06:30:58.971Z,8.07
2023-05-04T06:33:27.322Z,8.80
2023-05-04T06:35:55.675Z,8.87
2023-05-04T06:38:23.909Z,9.00
2023-05-04T06:40:52.508Z,8.33
2023-05-04T06:43:22.061Z,8.93
2023-05-04T06:45:50.301Z,9.40
2023-05-04T06:48:18.635Z,8.93
2023-05-04T06:50:47.374Z,8.93
2023-05-04T06:53:15.643Z,8.13
2023-05-04T06:55:43.813Z,9.00
2023-05-04T06:58:12.542Z,9.83
2023-05-04T07:00:43.115Z,9.07
2023-05-04T07:03:11.571Z,9.47
2023-05-04T07:05:39.852Z,9.17
2023-05-04T07:08:08.078Z,9.17
2023-05-04T07:10:36.295Z,8.73
2023-05-04T07:13:04.804Z,9.80
2023-05-04T07:15:33.854Z,9.17
2023-05-04T07:18:03.821Z,9.43
2023-05-04T07:20:32.440Z,9.00
2023-05-04T07:23:00.737Z,9.00
2023-05-04T07:25:29.990Z,8.43
2023-05-04T07:27:58.456Z,8.17
2023-05-04T07:30:27.076Z,8.70
2023-05-04T07:32:55.803Z,8.77
2023-05-04T07:35:25.712Z,7.97
2023-05-04T07:37:54.172Z,8.33
2023-05-04T07:40:22.925Z,8.13
2023-05-04T07:42:51.522Z,7.77
2023-05-04T07:45:19.948Z,8.55
2023-05-04T07:47:48.157Z,7.82
2023-05-04T07:50:16.648Z,8.13
2023-05-04T07:52:47.844Z,7.80
2023-05-04T07:55:16.291Z,7.50
2023-05-04T07:57:44.490Z,8.30
2023-05-04T08:00:14.812Z,7.57
2023-05-04T08:02:43.224Z,7.60
2023-05-04T08:05:12.039Z,7.10
2023-05-04T08:07:40.380Z,7.10
2023-05-04T08:10:11.444Z,6.57
2023-05-04T08:13:05.752Z,6.50
2023-05-04T08:15:34.159Z,6.68
2023-05-04T08:18:02.390Z,5.88
2023-05-04T08:20:30.631Z,5.90
2023-05-04T08:22:58.909Z,6.18
2023-05-04T08:25:28.498Z,6.18
2023-05-04T08:27:56.888Z,5.47
2023-05-04T08:30:25.371Z,5.95
2023-05-04T08:32:55.465Z,6.18
2023-05-04T08:35:25.903Z,5.80
2023-05-04T08:37:54.141Z,5.28
2023-05-04T08:40:24.231Z,6.43
2023-05-04T08:42:54.297Z,5.10
2023-05-04T08:45:23.663Z,5.95
2023-05-04T08:47:52.423Z,6.10
2023-05-04T08:50:20.740Z,5.28
2023-05-04T08:52:49.349Z,5.03
2023-05-04T08:55:18.719Z,5.53
2023-05-04T08:57:48.606Z,5.22
2023-05-04T09:00:21.458Z,5.30
2023-05-04T09:02:51.627Z,5.60
2023-05-04T09:05:20.283Z,4.93
2023-05-04T09:07:51.048Z,5.25
2023-05-04T09:10:19.732Z,5.70
2023-05-04T09:12:48.618Z,5.03
2023-05-04T09:15:19.668Z,5.15
2023-05-04T09:17:58.305Z,5.05
2023-05-04T09:20:26.976Z,5.35
2023-05-04T09:23:04.194Z,5.22
2023-05-04T09:25:32.507Z,5.18
2023-05-04T09:28:00.900Z,5.20
2023-05-04T09:30:30.513Z,5.18
2023-05-04T09:32:58.761Z,5.47
2023-05-04T09:35:33.845Z,5.15
2023-05-04T09:38:02.697Z,4.60
2023-05-04T09:40:36.112Z,5.10
2023-05-04T09:43:04.764Z,5.07
2023-05-04T09:45:45.865Z,5.00
2023-05-04T09:48:21.354Z,5.47
2023-05-04T09:50:52.713Z,4.70
2023-05-04T09:53:23.319Z,4.57
2023-05-04T09:56:05.754Z,4.40
2023-05-04T09:58:35.753Z,5.00
2023-05-04T10:01:08.271Z,4.30
2023-05-04T10:03:37.549Z,3.92
2023-05-04T10:06:08.943Z,4.47
2023-05-04T10:12:01.852Z,4.70
2023-05-04T10:14:33.029Z,3.80
2023-05-04T10:17:13.946Z,3.80
2023-05-04T10:20:01.078Z,4.22
2023-05-04T10:22:50.668Z,4.15
2023-05-04T10:25:39.421Z,4.22
2023-05-04T10:28:20.566Z,3.42
2023-05-04T10:30:49.009Z,3.83
2023-05-04T10:33:19.135Z,4.65
2023-05-04T10:35:54.124Z,3.92
2023-05-04T10:38:33.583Z,3.50
2023-05-04T10:41:02.199Z,3.47
2023-05-04T10:43:30.564Z,3.45
2023-05-04T10:46:01.351Z,3.45
2023-05-04T10:48:37.376Z,3.70
2023-05-04T10:51:05.850Z,3.53
2023-05-04T10:53:34.499Z,3.55
2023-05-04T10:56:02.857Z,3.70
2023-05-04T10:58:31.311Z,3.15
2023-05-04T11:00:59.687Z,3.30
2023-05-04T11:03:41.845Z,3.30
2023-05-04T11:06:19.530Z,3.28
2023-05-04T11:09:00.000Z,3.28
2023-05-04T11:11:28.723Z,3.75
2023-05-04T11:13:57.911Z,3.47
2023-05-04T11:16:27.249Z,3.08
2023-05-04T11:19:08.421Z,2.85
2023-05-04T11:21:36.761Z,3.05
2023-05-04T11:24:06.095Z,2.83
2023-05-04T11:26:34.919Z,3.10
2023-05-04T11:29:13.887Z,3.40
2023-05-04T11:31:44.924Z,3.00
2023-05-04T11:34:22.389Z,2.78
2023-05-04T11:36:50.797Z,2.70
2023-05-04T11:39:20.067Z,2.90
2023-05-04T11:41:48.564Z,3.28
2023-05-04T11:44:17.976Z,3.25
2023-05-04T11:46:47.878Z,3.03
2023-05-04T11:49:16.695Z,2.55
2023-05-04T11:51:48.608Z,2.92
2023-05-04T11:54:23.293Z,2.85
2023-05-04T11:56:51.561Z,2.22
2023-05-04T11:59:19.853Z,2.83
2023-05-04T12:01:49.446Z,2.70
2023-05-04T12:04:43.418Z,2.85
2023-05-04T12:07:13.708Z,2.65
2023-05-04T12:09:46.752Z,2.97
2023-05-04T12:12:17.302Z,2.90
2023-05-04T12:14:50.747Z,2.65
2023-05-04T12:17:20.356Z,3.00
2023-05-04T12:19:54.112Z,2.83
2023-05-04T12:22:29.629Z,3.03
2023-05-04T12:24:59.308Z,2.95
2023-05-04T12:27:27.918Z,2.80
2023-05-04T12:29:56.297Z,3.03
2023-05-04T12:32:24.656Z,2.42
2023-05-04T12:34:53.302Z,2.45
2023-05-04T12:37:23.825Z,2.30
2023-05-04T12:39:54.634Z,2.95
2023-05-04T12:42:23.525Z,2.70
2023-05-04T12:44:51.763Z,2.53
2023-05-04T12:47:21.027Z,2.38
2023-05-04T12:49:49.420Z,2.90
2023-05-04T12:52:17.865Z,2.80
2023-05-04T12:54:46.101Z,2.80
2023-05-04T12:57:15.736Z,2.50
2023-05-04T12:59:43.957Z,2.80
2023-05-04T13:02:12.240Z,2.35
2023-05-04T13:04:40.566Z,2.72
2023-05-04T13:07:08.810Z,2.50
2023-05-04T13:09:37.189Z,3.08
2023-05-04T13:12:05.637Z,2.72
2023-05-04T13:14:39.384Z,2.63
2023-05-04T13:17:07.982Z,2.83
2023-05-04T13:19:36.711Z,2.65
2023-05-04T13:22:06.714Z,2.50
2023-05-04T13:24:34.954Z,2.67
2023-05-04T13:27:03.725Z,2.70
2023-05-04T13:29:31.980Z,2.92
2023-05-04T13:32:01.627Z,3.28
2023-05-04T13:34:29.921Z,2.30
2023-05-04T13:36:58.151Z,2.38
2023-05-04T13:39:26.977Z,2.72
2023-05-04T13:41:55.227Z,3.05
2023-05-04T13:44:23.505Z,2.40
2023-05-04T13:46:51.792Z,2.60
2023-05-04T13:49:21.334Z,2.58
2023-05-04T13:51:49.639Z,2.38
2023-05-04T13:54:17.854Z,3.17
2023-05-04T13:56:46.095Z,3.08
2023-05-04T13:59:14.369Z,3.10
2023-05-04T14:01:42.717Z,2.42
2023-05-04T14:04:11.088Z,3.13
2023-05-04T14:06:40.718Z,2.60
2023-05-04T14:09:11.835Z,2.65
2023-05-04T14:11:44.004Z,2.70
2023-05-04T14:14:12.415Z,3.42
2023-05-04T14:16:40.777Z,2.80
2023-05-04T14:19:09.134Z,3.20
2023-05-04T14:21:37.796Z,2.97
2023-05-04T14:24:07.820Z,3.25
2023-05-04T14:26:36.100Z,2.92
2023-05-04T14:29:04.629Z,2.60
2023-05-04T14:31:33.299Z,2.95
2023-05-04T14:34:01.613Z,2.78
2023-05-04T14:36:29.947Z,2.78
2023-05-04T14:38:58.324Z,2.88
2023-05-04T14:41:33.341Z,2.60
2023-05-04T14:44:01.872Z,3.10
2023-05-04T14:46:30.775Z,2.92
2023-05-04T14:49:00.145Z,3.20
2023-05-04T14:51:30.032Z,3.25
2023-05-04T14:53:59.664Z,2.92
2023-05-04T14:56:30.025Z,3.03
2023-05-04T14:59:01.209Z,3.30
2023-05-04T15:01:29.619Z,3.10
2023-05-04T15:03:58.065Z,2.95
2023-05-04T15:06:27.283Z,3.00
2023-05-04T15:08:55.607Z,2.90
2023-05-04T15:11:23.842Z,2.88
2023-05-04T15:13:56.431Z,2.90
2023-05-04T15:16:30.024Z,2.70
2023-05-04T15:18:59.698Z,2.55
2023-05-04T15:21:28.277Z,2.88
2023-05-04T15:23:56.489Z,3.13
2023-05-04T15:26:24.768Z,3.03
2023-05-04T15:28:54.429Z,2.70
2023-05-04T15:31:22.912Z,2.72
2023-05-04T15:33:51.268Z,3.28
2023-05-04T15:36:19.557Z,3.28
2023-05-04T15:38:47.834Z,3.10
2023-05-04T15:41:16.060Z,3.17
2023-05-04T15:43:45.515Z,2.83
2023-05-04T15:46:15.199Z,2.60
2023-05-04T15:48:43.485Z,3.45
2023-05-04T15:51:12.323Z,2.80
2023-05-04T15:53:40.992Z,2.63
2023-05-04T15:56:09.954Z,2.08
2023-05-04T15:58:39.137Z,2.50
2023-05-04T16:01:10.042Z,2.42
2023-05-04T16:03:41.038Z,2.90
2023-05-04T16:06:34.968Z,2.67
2023-05-04T16:09:05.089Z,2.65
2023-05-04T16:11:36.144Z,2.70
2023-05-04T16:14:24.066Z,2.15
2023-05-04T16:16:52.381Z,2.58
2023-05-04T16:19:22.598Z,2.78
2023-05-04T16:21:50.809Z,2.47
2023-05-04T16:24:19.038Z,2.65
2023-05-04T16:26:49.771Z,2.40
2023-05-04T16:29:18.029Z,2.47
2023-05-04T16:31:48.279Z,2.67
2023-05-04T16:34:16.542Z,2.40
2023-05-04T16:36:46.212Z,2.67
2023-05-04T16:39:14.634Z,2.70
2023-05-04T16:41:46.632Z,2.40
2023-05-04T16:44:15.325Z,2.90
2023-05-04T16:46:43.723Z,2.60
2023-05-04T16:49:14.622Z,2.42
2023-05-04T16:51:43.495Z,2.58
2023-05-04T16:54:13.156Z,2.42
2023-05-04T16:56:41.433Z,2.70
2023-05-04T16:59:09.657Z,2.58
2023-05-04T17:01:38.200Z,2.63
2023-05-04T17:04:06.701Z,2.50
2023-05-04T17:06:34.935Z,2.10
2023-05-04T17:09:04.431Z,2.58
2023-05-04T17:11:34.566Z,1.95
2023-05-04T17:14:03.609Z,1.88
2023-05-04T17:16:31.977Z,2.25
2023-05-04T17:19:01.087Z,2.28
2023-05-04T17:21:29.454Z,2.60
2023-05-04T17:23:57.720Z,2.30
2023-05-04T17:26:26.014Z,2.40
2023-05-04T17:28:55.995Z,2.80
2023-05-04T17:31:24.457Z,2.35
2023-05-04T17:33:52.838Z,2.47
2023-05-04T17:36:21.119Z,2.42
2023-05-04T17:38:50.973Z,2.60
2023-05-04T17:41:19.306Z,2.40
2023-05-04T17:43:50.230Z,2.42
2023-05-04T17:46:19.915Z,2.78
2023-05-04T17:48:48.644Z,2.47
2023-05-04T17:51:16.951Z,2.40
2023-05-04T17:53:45.707Z,2.47
2023-05-04T17:56:13.988Z,2.40
2023-05-04T17:58:42.450Z,2.80
2023-05-04T18:01:10.720Z,2.70
2023-05-04T18:04:05.917Z,2.00
2023-05-04T18:06:34.610Z,2.40
2023-05-04T18:09:06.198Z,2.45
2023-05-04T18:11:37.172Z,2.97
2023-05-04T18:14:30.826Z,2.65
2023-05-04T18:16:59.070Z,2.60
2023-05-04T18:19:28.649Z,2.55
2023-05-04T18:21:56.901Z,2.55
2023-05-04T18:24:25.209Z,2.97
2023-05-04T18:26:54.630Z,2.70
2023-05-04T18:29:22.917Z,2.20
2023-05-04T18:31:51.233Z,2.65
2023-05-04T18:34:19.481Z,2.70
2023-05-04T18:36:49.432Z,2.58
2023-05-04T18:39:17.733Z,2.80
2023-05-04T18:41:46.194Z,3.05
2023-05-04T18:44:18.028Z,3.00
2023-05-04T18:46:46.380Z,2.80
2023-05-04T18:49:14.776Z,2.95
2023-05-04T18:51:43.055Z,3.40
2023-05-04T18:54:14.934Z,3.03
2023-05-04T18:56:43.165Z,3.25
2023-05-04T18:59:13.189Z,2.60
2023-05-04T19:01:41.498Z,3.30
2023-05-04T19:04:09.767Z,3.17
2023-05-04T19:06:37.965Z,3.08
2023-05-04T19:09:08.017Z,3.10
2023-05-04T19:11:38.034Z,3.30
2023-05-04T19:14:06.568Z,3.05
2023-05-04T19:16:34.809Z,3.40
2023-05-04T19:19:03.734Z,3.35
2023-05-04T19:21:32.043Z,3.15
2023-05-04T19:24:00.437Z,3.38
2023-05-04T19:26:29.148Z,2.75
2023-05-04T19:28:58.720Z,3.25
2023-05-04T19:31:27.036Z,2.85
2023-05-04T19:33:56.666Z,3.17
2023-05-04T19:36:24.928Z,3.30
2023-05-04T19:38:53.213Z,3.10
2023-05-04T19:41:22.100Z,3.50
2023-05-04T19:43:50.398Z,3.90
2023-05-04T19:46:21.358Z,3.53
2023-05-04T19:48:49.676Z,3.70
2023-05-04T19:51:17.903Z,3.67
2023-05-04T19:53:46.185Z,3.58
2023-05-04T19:56:14.463Z,3.70
2023-05-04T19:58:42.710Z,3.55
2023-05-04T20:01:11.033Z,3.50
2023-05-04T20:04:31.500Z,3.70
2023-05-04T20:07:00.087Z,3.85
2023-05-04T20:09:29.006Z,3.83
2023-05-04T20:11:59.597Z,3.42
2023-05-04T20:14:41.199Z,3.63
2023-05-04T20:17:09.508Z,3.53
2023-05-04T20:19:40.791Z,3.40
2023-05-04T20:22:09.124Z,3.50
2023-05-04T20:24:37.404Z,3.47
2023-05-04T20:27:05.759Z,3.78
2023-05-04T20:29:34.811Z,3.55
2023-05-04T20:32:05.301Z,3.38
2023-05-04T20:34:33.931Z,4.22
2023-05-04T20:37:03.781Z,3.55
2023-05-04T20:39:32.365Z,3.80
2023-05-04T20:42:00.810Z,3.50
2023-05-04T20:44:29.414Z,3.60
2023-05-04T20:46:57.660Z,4.07
2023-05-04T20:49:25.989Z,3.63
2023-05-04T20:51:54.221Z,3.78
2023-05-04T20:54:24.168Z,3.97
2023-05-04T20:56:52.382Z,3.83
2023-05-04T20:59:20.713Z,3.95
2023-05-04T21:01:49.023Z,3.72
2023-05-04T21:04:17.406Z,4.00
2023-05-04T21:06:47.480Z,3.92
2023-05-04T21:09:16.666Z,3.70
2023-05-04T21:11:46.265Z,3.45
2023-05-04T21:14:15.292Z,3.85
2023-05-04T21:16:43.893Z,3.70
2023-05-04T21:19:12.158Z,3.58
2023-05-04T21:21:41.382Z,3.65
2023-05-04T21:24:13.221Z,3.45
2023-05-04T21:26:42.281Z,3.85
2023-05-04T21:29:15.055Z,3.45
2023-05-04T21:31:43.807Z,3.78
2023-05-04T21:34:12.084Z,3.63
2023-05-04T21:36:40.499Z,3.35
2023-05-04T21:39:09.260Z,3.50
2023-05-04T21:41:37.689Z,3.65
2023-05-04T21:44:09.782Z,3.47
2023-05-04T21:46:39.354Z,3.70
2023-05-04T21:49:07.904Z,3.83
2023-05-04T21:51:36.269Z,4.28
2023-05-04T21:54:04.688Z,3.80
2023-05-04T21:56:32.952Z,3.67
2023-05-04T21:59:01.188Z,3.58
2023-05-04T22:01:29.459Z,3.67
2023-05-04T22:03:59.251Z,3.53
2023-05-04T22:06:27.763Z,4.05
2023-05-04T22:08:56.171Z,3.42
2023-05-04T22:11:29.522Z,4.13
2023-05-04T22:13:59.832Z,4.57
2023-05-04T22:16:28.128Z,3.38
2023-05-04T22:18:56.364Z,3.58
2023-05-04T22:21:26.175Z,4.43
2023-05-04T22:23:54.436Z,3.88
2023-05-04T22:26:22.624Z,3.95
2023-05-04T22:28:50.981Z,4.20
2023-05-04T22:31:19.289Z,3.97
2023-05-04T22:33:47.837Z,4.07
2023-05-04T22:36:16.082Z,5.30
2023-05-04T22:38:45.697Z,4.10
2023-05-04T22:41:15.020Z,4.20
2023-05-04T22:43:43.277Z,4.55
2023-05-04T22:46:16.821Z,4.28
2023-05-04T22:48:47.348Z,4.45
2023-05-04T22:51:16.795Z,4.45
2023-05-04T22:53:46.394Z,4.03
2023-05-04T22:56:14.661Z,4.93
2023-05-04T22:58:42.892Z,4.13
2023-05-04T23:01:11.730Z,4.90
2023-05-04T23:03:40.385Z,4.10
2023-05-04T23:06:09.763Z,4.40
2023-05-04T23:08:38.682Z,4.30
2023-05-04T23:11:08.750Z,4.40
2023-05-04T23:13:37.624Z,4.72
2023-05-04T23:16:07.461Z,4.45
2023-05-04T23:18:35.729Z,4.60
2023-05-04T23:21:04.000Z,4.55
2023-05-04T23:23:32.250Z,4.95
2023-05-04T23:26:00.470Z,4.78
2023-05-04T23:28:30.029Z,5.22
2023-05-04T23:30:58.340Z,5.68
2023-05-04T23:33:26.603Z,5.00
2023-05-04T23:35:56.555Z,4.65
2023-05-04T23:38:24.774Z,4.45
2023-05-04T23:40:53.852Z,4.97
2023-05-04T23:43:23.589Z,4.32
2023-05-04T23:46:01.062Z,4.75
2023-05-04T23:48:29.891Z,4.60
2023-05-04T23:53:55.935Z,4.70
2023-05-04T23:56:24.194Z,4.78
2023-05-04T23:59:17.796Z,4.57
